Time;durP1;ratioP1;P1;durP2;ratioP2;P2;SDS_P1;SDS_P2;PMS_P1;PMS_P2;Temp;Humidity;BMP_temperature;BMP_pressure;BME280_temperature;BME280_humidity;BME280_pressure;Samples;Min_cycle;Max_cycle;Signal;HPM_P1;HPM_P2
2022/01/25 00:31:02;;;;;;;72.05;31.75;;;;;;;;;;4989808;28;109056;-69
2022/01/25 00:33:30;;;;;;;71.63;31.85;;;;;;;;;;4987942;28;106539;-70
2022/01/25 00:35:56;;;;;;;71.95;32.20;;;;;;;;;;4990096;28;105857;-69
2022/01/25 00:38:23;;;;;;;71.80;31.15;;;;;;;;;;4983261;28;106344;-69
2022/01/25 00:40:50;;;;;;;62.53;29.45;;;;;;;;;;4990832;28;106279;-69
2022/01/25 00:43:17;;;;;;;71.57;31.55;;;;;;;;;;4988473;28;106311;-69
2022/01/25 00:45:43;;;;;;;67.30;29.05;;;;;;;;;;4981517;28;108309;-69
2022/01/25 00:48:18;;;;;;;68.30;31.63;;;;;;;;;;4981951;28;105954;-69
2022/01/25 00:50:47;;;;;;;69.75;30.60;;;;;;;;;;4990938;28;107010;-69
2022/01/25 00:55:58;;;;;;;71.97;31.50;;;;;;;;;;4988136;28;108955;-69
2022/01/25 00:58:25;;;;;;;66.70;30.63;;;;;;;;;;4987373;28;107324;-69
2022/01/25 01:00:51;;;;;;;72.03;30.95;;;;;;;;;;4987692;28;106124;-69
2022/01/25 01:03:18;;;;;;;68.85;30.77;;;;;;;;;;4989901;28;108569;-69
2022/01/25 01:05:46;;;;;;;70.57;31.42;;;;;;;;;;4971188;28;106365;-69
2022/01/25 01:08:15;;;;;;;70.43;31.30;;;;;;;;;;4978533;28;106027;-70
2022/01/25 01:10:41;;;;;;;70.45;31.40;;;;;;;;;;4986024;28;106411;-69
2022/01/25 01:13:48;;;;;;;64.30;29.55;;;;;;;;;;4992191;28;107264;-70
2022/01/25 01:29:34;;;;;;;71.90;30.63;;;;;;;;;;4984145;28;105528;-69
2022/01/25 01:45:10;;;;;;;69.88;31.02;;;;;;;;;;4990047;28;106416;-72
2022/01/25 01:47:46;;;;;;;71.97;31.23;;;;;;;;;;4987345;28;107814;-68
2022/01/25 01:50:25;;;;;;;65.68;30.17;;;;;;;;;;4984454;28;106666;-71
2022/01/25 01:52:52;;;;;;;70.63;31.53;;;;;;;;;;4987456;28;106801;-69
2022/01/25 01:55:19;;;;;;;70.53;31.02;;;;;;;;;;4979324;28;106166;-69
2022/01/25 01:57:46;;;;;;;72.53;30.40;;;;;;;;;;4984245;28;106294;-68
2022/01/25 02:00:13;;;;;;;68.18;30.40;;;;;;;;;;4989462;28;107173;-73
2022/01/25 02:02:41;;;;;;;66.63;29.77;;;;;;;;;;4987589;28;105916;-70
2022/01/25 02:05:07;;;;;;;70.60;31.67;;;;;;;;;;4980364;28;107355;-70
2022/01/25 02:07:34;;;;;;;70.68;30.17;;;;;;;;;;4989083;22;108903;-69
2022/01/25 02:10:00;;;;;;;69.70;31.38;;;;;;;;;;4986723;28;106506;-69
2022/01/25 02:12:27;;;;;;;71.28;30.17;;;;;;;;;;4987712;28;107312;-70
2022/01/25 02:14:55;;;;;;;71.82;31.38;;;;;;;;;;4970558;28;106653;-71
2022/01/25 02:22:53;;;;;;;74.35;31.13;;;;;;;;;;4950666;28;109477;-71
2022/01/25 02:25:20;;;;;;;69.88;30.55;;;;;;;;;;4987895;28;106832;-69
2022/01/25 02:27:47;;;;;;;68.32;30.17;;;;;;;;;;4968543;28;107274;-69
2022/01/25 02:30:13;;;;;;;73.72;31.33;;;;;;;;;;4987907;28;107298;-70
2022/01/25 02:32:40;;;;;;;74.55;31.50;;;;;;;;;;4986587;28;105809;-69
2022/01/25 02:35:06;;;;;;;66.35;28.45;;;;;;;;;;4988185;28;107857;-69
2022/01/25 02:37:33;;;;;;;69.03;30.48;;;;;;;;;;4968462;28;106292;-70
2022/01/25 02:40:00;;;;;;;72.57;30.88;;;;;;;;;;4985501;28;106902;-69
2022/01/25 02:42:26;;;;;;;71.47;30.23;;;;;;;;;;4987179;28;107446;-69
2022/01/25 02:44:53;;;;;;;73.35;30.67;;;;;;;;;;4988020;28;107714;-68
2022/01/25 02:50:05;;;;;;;74.72;30.42;;;;;;;;;;4978994;28;106640;-69
2022/01/25 02:52:32;;;;;;;72.38;29.50;;;;;;;;;;4984883;28;107601;-69
2022/01/25 02:54:58;;;;;;;73.05;29.67;;;;;;;;;;4987126;28;108256;-69
2022/01/25 02:57:25;;;;;;;74.10;32.05;;;;;;;;;;4984650;28;105960;-69
2022/01/25 02:59:52;;;;;;;77.22;31.38;;;;;;;;;;4984390;28;106785;-70
2022/01/25 03:02:18;;;;;;;68.90;29.50;;;;;;;;;;4988781;28;107626;-69
2022/01/25 03:04:45;;;;;;;75.95;32.10;;;;;;;;;;4994515;28;106802;-70
2022/01/25 03:07:11;;;;;;;69.70;29.77;;;;;;;;;;4970182;28;107535;-70
2022/01/25 03:09:40;;;;;;;73.03;32.00;;;;;;;;;;4954056;28;107327;-70
2022/01/25 03:12:08;;;;;;;72.28;31.23;;;;;;;;;;4987439;28;108607;-70
2022/01/25 03:14:47;;;;;;;70.60;30.33;;;;;;;;;;4991051;28;106895;-70
2022/01/25 03:17:23;;;;;;;75.82;30.83;;;;;;;;;;4989728;28;107227;-72
2022/01/25 03:20:02;;;;;;;75.60;31.58;;;;;;;;;;4991617;28;106727;-70
2022/01/25 03:22:45;;;;;;;70.90;30.92;;;;;;;;;;4975262;28;108659;-70
2022/01/25 03:25:11;;;;;;;73.15;32.08;;;;;;;;;;4984168;28;106257;-70
2022/01/25 03:27:38;;;;;;;73.28;31.55;;;;;;;;;;4993582;28;107712;-70
2022/01/25 03:30:04;;;;;;;73.38;31.55;;;;;;;;;;4990415;28;105651;-69
2022/01/25 03:32:31;;;;;;;77.95;31.67;;;;;;;;;;4964533;28;107229;-69
2022/01/25 03:34:57;;;;;;;74.55;30.63;;;;;;;;;;4990785;28;106155;-69
2022/01/25 03:37:23;;;;;;;72.85;31.23;;;;;;;;;;4981269;28;106351;-70
2022/01/25 03:39:50;;;;;;;74.03;32.03;;;;;;;;;;4990778;28;106713;-69
2022/01/25 03:42:18;;;;;;;74.32;31.65;;;;;;;;;;4970728;28;109453;-69
2022/01/25 03:44:45;;;;;;;73.53;30.20;;;;;;;;;;4955173;28;106630;-69
2022/01/25 03:47:16;;;;;;;76.32;31.10;;;;;;;;;;4969446;28;108397;-69
2022/01/25 03:49:52;;;;;;;79.47;32.25;;;;;;;;;;4992092;28;106393;-69
2022/01/25 03:52:23;;;;;;;71.70;30.48;;;;;;;;;;4984208;28;106218;-70
2022/01/25 03:54:49;;;;;;;72.63;30.55;;;;;;;;;;4990625;28;107382;-70
2022/01/25 03:57:17;;;;;;;80.82;32.28;;;;;;;;;;4987765;28;105972;-69
2022/01/25 03:59:44;;;;;;;76.00;31.75;;;;;;;;;;4990481;28;106543;-70
2022/01/25 04:02:11;;;;;;;77.40;32.50;;;;;;;;;;4987999;28;107438;-70
2022/01/25 04:04:38;;;;;;;76.22;31.52;;;;;;;;;;4972084;28;106176;-69
2022/01/25 04:07:09;;;;;;;80.10;31.65;;;;;;;;;;4987167;28;107248;-70
2022/01/25 04:09:37;;;;;;;75.38;30.73;;;;;;;;;;4989583;28;106235;-69
2022/01/25 04:12:04;;;;;;;75.10;30.65;;;;;;;;;;4994443;28;106560;-69
2022/01/25 04:14:31;;;;;;;78.78;32.38;;;;;;;;;;4987552;28;107343;-69
2022/01/25 04:17:07;;;;;;;75.40;31.63;;;;;;;;;;4972183;28;106902;-69
2022/01/25 04:19:43;;;;;;;75.72;31.05;;;;;;;;;;4990629;28;107088;-69
2022/01/25 04:27:28;;;;;;;80.97;32.38;;;;;;;;;;4989717;28;106745;-70
2022/01/25 04:29:55;;;;;;;79.80;32.10;;;;;;;;;;4987485;28;107558;-70
2022/01/25 04:49:07;;;;;;;80.18;30.95;;;;;;;;;;4970590;28;108603;-69
2022/01/25 04:51:52;;;;;;;78.25;31.05;;;;;;;;;;4987143;28;106286;-69
2022/01/25 04:54:39;;;;;;;75.90;30.42;;;;;;;;;;4984274;28;106304;-69
2022/01/25 04:59:50;;;;;;;71.93;29.20;;;;;;;;;;4989032;28;106102;-69
2022/01/25 05:02:27;;;;;;;76.47;30.40;;;;;;;;;;4988972;28;108181;-69
2022/01/25 05:05:01;;;;;;;76.82;30.80;;;;;;;;;;4986193;28;107606;-70
2022/01/25 05:07:35;;;;;;;78.10;30.67;;;;;;;;;;4986217;28;105699;-69
2022/01/25 05:10:04;;;;;;;76.22;31.42;;;;;;;;;;4986748;28;106629;-69
2022/01/25 05:12:46;;;;;;;77.78;31.52;;;;;;;;;;4988618;28;108002;-70
2022/01/25 05:16:01;;;;;;;76.70;30.88;;;;;;;;;;4988863;28;105996;-69
2022/01/25 05:18:36;;;;;;;80.93;30.95;;;;;;;;;;4987501;28;107219;-72
2022/01/25 05:23:48;;;;;;;79.90;30.75;;;;;;;;;;4987438;28;108189;-69
2022/01/25 05:26:14;;;;;;;81.78;31.23;;;;;;;;;;4987104;28;106208;-69
2022/01/25 05:28:41;;;;;;;82.95;32.72;;;;;;;;;;4986832;28;106458;-69
2022/01/25 05:31:07;;;;;;;81.13;32.80;;;;;;;;;;4971201;28;106951;-73
2022/01/25 05:33:33;;;;;;;79.75;31.75;;;;;;;;;;4987946;28;110190;-70
2022/01/25 05:36:00;;;;;;;84.50;33.00;;;;;;;;;;4988127;28;106358;-71
2022/01/25 05:38:26;;;;;;;85.03;33.67;;;;;;;;;;4986470;28;105977;-70
2022/01/25 05:40:59;;;;;;;86.43;33.63;;;;;;;;;;4989631;28;106626;-70
2022/01/25 05:44:20;;;;;;;80.40;32.05;;;;;;;;;;4984649;28;106728;-70
2022/01/25 05:46:16;;;;;;;74.13;30.63;;;;;;;;;;4975847;28;107145;-69
2022/01/25 05:48:43;;;;;;;82.63;33.33;;;;;;;;;;4986457;28;106642;-70
2022/01/25 05:51:10;;;;;;;93.20;35.95;;;;;;;;;;4983143;28;107599;-69
2022/01/25 05:53:36;;;;;;;89.28;35.05;;;;;;;;;;4986731;28;108003;-69
2022/01/25 05:56:03;;;;;;;83.85;33.65;;;;;;;;;;4970675;28;107182;-72
2022/01/25 05:58:30;;;;;;;87.15;34.78;;;;;;;;;;4986707;28;106877;-69
2022/01/25 06:00:56;;;;;;;87.50;35.42;;;;;;;;;;4987823;28;106964;-69
2022/01/25 06:03:23;;;;;;;88.45;34.97;;;;;;;;;;4970617;28;106912;-70
2022/01/25 06:05:49;;;;;;;87.85;34.15;;;;;;;;;;4973839;28;107247;-69
2022/01/25 06:08:16;;;;;;;85.55;35.75;;;;;;;;;;4985439;28;106433;-69
2022/01/25 06:10:42;;;;;;;89.75;36.33;;;;;;;;;;4988755;28;107640;-69
2022/01/25 06:13:08;;;;;;;89.35;35.95;;;;;;;;;;4987554;28;107334;-70
2022/01/25 06:15:35;;;;;;;89.55;35.63;;;;;;;;;;4952934;28;106000;-69
2022/01/25 06:18:02;;;;;;;89.05;36.25;;;;;;;;;;4988029;28;106987;-70
2022/01/25 06:20:28;;;;;;;86.13;36.20;;;;;;;;;;4986251;28;107347;-69
2022/01/25 06:22:55;;;;;;;99.57;39.50;;;;;;;;;;4967145;28;108085;-70
2022/01/25 06:25:22;;;;;;;95.82;36.47;;;;;;;;;;4966946;28;108047;-70
2022/01/25 06:27:48;;;;;;;91.20;36.38;;;;;;;;;;4973299;28;106395;-69
2022/01/25 06:30:18;;;;;;;90.93;35.00;;;;;;;;;;4986765;28;107076;-70
2022/01/25 06:32:45;;;;;;;95.32;37.75;;;;;;;;;;4967884;28;107730;-69
2022/01/25 06:35:13;;;;;;;98.28;37.20;;;;;;;;;;4988201;28;107813;-69
2022/01/25 06:37:40;;;;;;;93.65;36.65;;;;;;;;;;4978401;28;107785;-69
2022/01/25 06:40:07;;;;;;;88.43;35.33;;;;;;;;;;4986661;28;106886;-69
2022/01/25 06:42:35;;;;;;;99.85;37.78;;;;;;;;;;4969897;28;107208;-69
2022/01/25 06:45:10;;;;;;;95.57;37.90;;;;;;;;;;4987785;28;106516;-69
2022/01/25 06:47:37;;;;;;;96.43;37.08;;;;;;;;;;4968325;28;107442;-69
2022/01/25 06:50:03;;;;;;;98.93;37.30;;;;;;;;;;4990929;28;107470;-71
2022/01/25 06:52:30;;;;;;;91.68;35.83;;;;;;;;;;4967451;28;107550;-70
2022/01/25 06:54:56;;;;;;;93.30;36.33;;;;;;;;;;4986267;28;105884;-71
2022/01/25 06:57:23;;;;;;;95.82;38.53;;;;;;;;;;4986239;28;106332;-70
2022/01/25 06:59:49;;;;;;;99.38;38.83;;;;;;;;;;4975555;28;107793;-70
2022/01/25 07:02:15;;;;;;;88.18;35.63;;;;;;;;;;4987059;28;107263;-70
2022/01/25 07:04:42;;;;;;;91.97;35.58;;;;;;;;;;4954429;28;105979;-70
2022/01/25 07:07:08;;;;;;;96.65;37.20;;;;;;;;;;4966757;28;106913;-70
2022/01/25 07:09:36;;;;;;;94.22;36.78;;;;;;;;;;4972099;28;106214;-69
2022/01/25 07:12:03;;;;;;;95.97;37.08;;;;;;;;;;4987387;28;107049;-70
2022/01/25 07:14:30;;;;;;;96.78;36.92;;;;;;;;;;4986875;28;106712;-70
2022/01/25 07:16:56;;;;;;;100.20;37.53;;;;;;;;;;4985027;28;106048;-70
2022/01/25 07:19:24;;;;;;;99.10;37.85;;;;;;;;;;4982073;28;109011;-71
2022/01/25 07:21:50;;;;;;;102.15;37.20;;;;;;;;;;4969436;28;106292;-71
2022/01/25 07:24:17;;;;;;;100.18;38.70;;;;;;;;;;4969390;28;109508;-69
2022/01/25 07:26:44;;;;;;;94.97;38.40;;;;;;;;;;4969003;28;107424;-71
2022/01/25 07:29:10;;;;;;;98.95;38.67;;;;;;;;;;4985888;28;106116;-70
2022/01/25 07:31:36;;;;;;;96.03;37.63;;;;;;;;;;4966091;28;108498;-70
2022/01/25 07:34:08;;;;;;;106.35;38.70;;;;;;;;;;4984479;28;105680;-69
2022/01/25 07:36:38;;;;;;;94.53;36.08;;;;;;;;;;4981662;28;106974;-70
2022/01/25 07:39:15;;;;;;;99.88;36.80;;;;;;;;;;4985734;28;106548;-69
2022/01/25 07:41:46;;;;;;;94.55;37.13;;;;;;;;;;4986853;28;106665;-69
2022/01/25 07:44:28;;;;;;;97.38;37.90;;;;;;;;;;4953753;28;108374;-70
2022/01/25 07:46:57;;;;;;;92.20;36.33;;;;;;;;;;4985103;28;106757;-70
2022/01/25 07:49:33;;;;;;;94.05;36.47;;;;;;;;;;4988018;28;105987;-70
2022/01/25 07:52:02;;;;;;;;;;;;;;;;;;4968604;28;107572;-68
2022/01/25 07:54:29;;;;;;;101.68;37.22;;;;;;;;;;4990022;28;136875;-69
2022/01/25 07:56:56;;;;;;;94.18;36.47;;;;;;;;;;4989689;28;108039;-71
2022/01/25 07:59:23;;;;;;;98.88;36.70;;;;;;;;;;4984938;28;106338;-70
2022/01/25 08:01:50;;;;;;;96.35;36.40;;;;;;;;;;4983677;28;106467;-70
2022/01/25 08:04:18;;;;;;;93.00;36.38;;;;;;;;;;4989643;28;107081;-69
2022/01/25 08:07:12;;;;;;;98.05;36.00;;;;;;;;;;4889935;28;108987;-70
2022/01/25 08:09:40;;;;;;;98.87;37.03;;;;;;;;;;4906439;28;106149;-70
2022/01/25 08:12:18;;;;;;;97.13;36.78;;;;;;;;;;4985868;28;107286;-70
2022/01/25 08:14:48;;;;;;;96.60;36.03;;;;;;;;;;4986326;28;106893;-71
2022/01/25 08:17:19;;;;;;;93.78;35.00;;;;;;;;;;4989669;28;108196;-70
2022/01/25 08:19:51;;;;;;;100.05;36.53;;;;;;;;;;4951156;28;107851;-69
2022/01/25 08:22:44;;;;;;;95.28;36.17;;;;;;;;;;4977614;28;107297;-69
2022/01/25 08:25:31;;;;;;;98.80;35.92;;;;;;;;;;4976851;28;106652;-70
2022/01/25 08:27:59;;;;;;;95.80;36.55;;;;;;;;;;4983634;28;106918;-70
2022/01/25 08:30:30;;;;;;;98.15;36.15;;;;;;;;;;4987518;28;107144;-70
2022/01/25 08:33:00;;;;;;;92.55;35.40;;;;;;;;;;4988784;28;107087;-69
2022/01/25 08:35:36;;;;;;;94.68;36.15;;;;;;;;;;4985851;28;109297;-70
2022/01/25 08:38:22;;;;;;;97.32;35.42;;;;;;;;;;4971884;28;106131;-70
2022/01/25 08:40:52;;;;;;;99.47;37.10;;;;;;;;;;4979305;28;107562;-69
2022/01/25 08:43:21;;;;;;;93.90;35.00;;;;;;;;;;4968284;28;107664;-70
2022/01/25 08:46:01;;;;;;;102.60;36.08;;;;;;;;;;4982379;28;108197;-70
2022/01/25 08:48:30;;;;;;;101.90;35.80;;;;;;;;;;4989053;28;106433;-70
2022/01/25 08:51:06;;;;;;;98.18;36.17;;;;;;;;;;4971091;28;106480;-70
2022/01/25 08:53:33;;;;;;;95.15;35.78;;;;;;;;;;4970845;28;106216;-69
2022/01/25 08:56:02;;;;;;;98.50;34.10;;;;;;;;;;4987763;28;107465;-69
2022/01/25 08:58:45;;;;;;;102.28;35.53;;;;;;;;;;4968885;28;107461;-70
2022/01/25 09:01:12;;;;;;;97.78;34.92;;;;;;;;;;4986223;28;106554;-69
2022/01/25 09:03:38;;;;;;;102.40;35.70;;;;;;;;;;4990342;28;106405;-70
2022/01/25 09:06:05;;;;;;;92.97;34.65;;;;;;;;;;4968287;28;108323;-70
2022/01/25 09:08:32;;;;;;;96.90;34.65;;;;;;;;;;4983616;28;106623;-69
2022/01/25 09:11:01;;;;;;;96.57;35.33;;;;;;;;;;4965023;28;106114;-69
2022/01/25 09:13:29;;;;;;;102.30;34.63;;;;;;;;;;4987456;28;106177;-69
2022/01/25 09:15:56;;;;;;;99.32;35.90;;;;;;;;;;4987198;28;107058;-70
2022/01/25 09:18:22;;;;;;;101.95;36.42;;;;;;;;;;4989365;28;105901;-69
2022/01/25 09:20:49;;;;;;;91.88;34.13;;;;;;;;;;4966662;28;111296;-69
2022/01/25 09:23:18;;;;;;;96.10;34.60;;;;;;;;;;4984551;28;107493;-68
2022/01/25 09:25:47;;;;;;;98.85;35.28;;;;;;;;;;4978407;28;106057;-68
2022/01/25 09:28:14;;;;;;;99.32;35.95;;;;;;;;;;4986419;28;106483;-68
2022/01/25 09:30:40;;;;;;;103.32;35.55;;;;;;;;;;4970038;28;107600;-68
2022/01/25 09:33:06;;;;;;;96.20;34.78;;;;;;;;;;4983869;28;106036;-69
2022/01/25 09:35:33;;;;;;;95.18;34.30;;;;;;;;;;4987956;28;106804;-68
2022/01/25 09:37:59;;;;;;;100.38;34.63;;;;;;;;;;4986985;28;106233;-68
2022/01/25 09:40:26;;;;;;;94.78;36.03;;;;;;;;;;4986339;28;107184;-71
2022/01/25 09:42:56;;;;;;;90.07;33.35;;;;;;;;;;4986913;28;109217;-67
2022/01/25 09:45:22;;;;;;;97.85;36.03;;;;;;;;;;4973671;28;106720;-68
2022/01/25 09:47:51;;;;;;;96.00;34.45;;;;;;;;;;4988194;28;106757;-68
2022/01/25 09:50:18;;;;;;;96.93;35.33;;;;;;;;;;4985903;28;106606;-70
2022/01/25 09:52:45;;;;;;;98.47;34.40;;;;;;;;;;4970354;28;108166;-69
2022/01/25 09:55:13;;;;;;;94.22;33.88;;;;;;;;;;4987304;28;108373;-68
2022/01/25 09:57:40;;;;;;;95.67;34.60;;;;;;;;;;4970615;28;106129;-68
2022/01/25 10:00:09;;;;;;;96.70;32.97;;;;;;;;;;4985350;28;108714;-69
2022/01/25 10:02:37;;;;;;;105.22;36.25;;;;;;;;;;4987914;28;107141;-69
2022/01/25 10:05:16;;;;;;;93.82;34.60;;;;;;;;;;4987090;28;107022;-70
2022/01/25 10:07:42;;;;;;;94.57;34.45;;;;;;;;;;4990012;28;106294;-68
2022/01/25 10:10:09;;;;;;;92.22;34.70;;;;;;;;;;4987399;28;105874;-69
2022/01/25 10:12:39;;;;;;;101.50;35.25;;;;;;;;;;4986624;28;106761;-69
2022/01/25 10:15:09;;;;;;;93.82;33.33;;;;;;;;;;4987633;28;107329;-69
2022/01/25 10:17:56;;;;;;;99.03;35.63;;;;;;;;;;4988209;28;106222;-70
2022/01/25 10:20:26;;;;;;;94.78;34.78;;;;;;;;;;4966746;28;108333;-69
2022/01/25 10:22:53;;;;;;;95.28;34.58;;;;;;;;;;4988610;28;107478;-68
2022/01/25 10:25:30;;;;;;;103.75;36.78;;;;;;;;;;4986994;28;107559;-69
2022/01/25 10:28:03;;;;;;;92.70;33.75;;;;;;;;;;4970213;28;106801;-69
2022/01/25 10:30:31;;;;;;;94.25;34.30;;;;;;;;;;4988609;28;108430;-68
2022/01/25 10:33:01;;;;;;;88.28;33.10;;;;;;;;;;4969214;28;106004;-69
2022/01/25 10:35:29;;;;;;;93.20;34.38;;;;;;;;;;4982710;28;107009;-69
2022/01/25 10:37:55;;;;;;;94.18;33.88;;;;;;;;;;4987277;28;107036;-69
2022/01/25 10:40:37;;;;;;;93.03;33.63;;;;;;;;;;4975754;28;107068;-71
2022/01/25 10:43:05;;;;;;;101.03;35.33;;;;;;;;;;4987644;28;106418;-70
2022/01/25 10:45:31;;;;;;;94.13;33.28;;;;;;;;;;4979536;28;106605;-70
2022/01/25 10:47:58;;;;;;;97.65;33.97;;;;;;;;;;4983902;28;106896;-71
2022/01/25 10:50:27;;;;;;;99.95;34.38;;;;;;;;;;4982345;28;107748;-70
2022/01/25 10:53:07;;;;;;;93.67;33.93;;;;;;;;;;4971160;28;106368;-70
2022/01/25 10:55:49;;;;;;;90.43;33.90;;;;;;;;;;4968797;28;109676;-71
2022/01/25 10:58:16;;;;;;;97.20;33.25;;;;;;;;;;4980414;28;106836;-70
2022/01/25 11:00:45;;;;;;;99.50;35.38;;;;;;;;;;4987648;28;106733;-70
2022/01/25 11:03:23;;;;;;;91.78;34.28;;;;;;;;;;4966198;28;107455;-70
2022/01/25 11:05:50;;;;;;;91.95;32.10;;;;;;;;;;4986033;28;106178;-69
2022/01/25 11:08:18;;;;;;;91.82;32.88;;;;;;;;;;4985176;28;106137;-70
2022/01/25 11:10:49;;;;;;;95.80;33.63;;;;;;;;;;4987231;28;107731;-69
2022/01/25 11:15:55;;;;;;;93.63;32.67;;;;;;;;;;4987779;28;108669;-69
2022/01/25 11:18:21;;;;;;;105.65;35.58;;;;;;;;;;4985771;28;107042;-69
2022/01/25 11:20:51;;;;;;;96.60;33.60;;;;;;;;;;4986267;28;107110;-70
2022/01/25 11:23:18;;;;;;;95.75;33.83;;;;;;;;;;4970000;28;107876;-71
2022/01/25 11:25:45;;;;;;;92.28;32.53;;;;;;;;;;4990697;28;106366;-71
2022/01/25 11:28:12;;;;;;;93.00;32.92;;;;;;;;;;4968172;28;107193;-71
2022/01/25 11:30:40;;;;;;;94.63;33.20;;;;;;;;;;4986067;28;107829;-72
2022/01/25 11:33:07;;;;;;;91.32;33.13;;;;;;;;;;4990689;28;106257;-73
2022/01/25 11:35:34;;;;;;;92.05;32.75;;;;;;;;;;4977017;28;107250;-72
2022/01/25 11:38:01;;;;;;;86.90;30.60;;;;;;;;;;4989661;28;106293;-72
2022/01/25 11:40:30;;;;;;;95.38;32.47;;;;;;;;;;4970947;28;106713;-69
2022/01/25 11:43:00;;;;;;;88.22;31.92;;;;;;;;;;4988684;28;106312;-70
2022/01/25 11:45:28;;;;;;;96.68;33.90;;;;;;;;;;4970906;28;106924;-70
2022/01/25 11:47:55;;;;;;;93.43;32.85;;;;;;;;;;4984385;28;108148;-70
2022/01/25 11:50:42;;;;;;;90.07;33.20;;;;;;;;;;4984669;28;107684;-70
2022/01/25 11:53:11;;;;;;;90.85;32.70;;;;;;;;;;4969724;28;106075;-71
2022/01/25 11:55:37;;;;;;;93.75;33.05;;;;;;;;;;4983075;28;107648;-70
2022/01/25 11:58:05;;;;;;;98.95;33.53;;;;;;;;;;4991497;28;107678;-71
2022/01/25 12:00:51;;;;;;;92.13;33.05;;;;;;;;;;4972217;28;107479;-71
2022/01/25 12:03:23;;;;;;;93.43;33.47;;;;;;;;;;4989548;28;106484;-70
2022/01/25 12:06:06;;;;;;;94.32;31.88;;;;;;;;;;4988655;28;106095;-71
2022/01/25 12:11:35;;;;;;;94.07;33.42;;;;;;;;;;4982389;28;109087;-70
2022/01/25 12:14:18;;;;;;;94.88;31.45;;;;;;;;;;4988344;28;107092;-71
2022/01/25 12:16:52;;;;;;;88.43;32.50;;;;;;;;;;4991346;28;106426;-70
2022/01/25 12:19:21;;;;;;;88.05;32.28;;;;;;;;;;4995664;28;106502;-72
2022/01/25 12:21:48;;;;;;;87.68;30.85;;;;;;;;;;4990392;28;106185;-72
2022/01/25 12:24:25;;;;;;;93.15;32.05;;;;;;;;;;4989417;28;107492;-70
2022/01/25 12:27:10;;;;;;;85.80;31.27;;;;;;;;;;4986717;28;107301;-73
2022/01/25 12:29:40;;;;;;;91.05;32.13;;;;;;;;;;4995788;28;107092;-72
2022/01/25 12:32:16;;;;;;;89.80;32.30;;;;;;;;;;4987889;28;106217;-72
2022/01/25 12:35:01;;;;;;;95.03;32.47;;;;;;;;;;4981038;28;107388;-70
2022/01/25 12:37:43;;;;;;;80.93;29.83;;;;;;;;;;4982300;28;107464;-72
2022/01/25 12:40:25;;;;;;;85.90;30.23;;;;;;;;;;4946614;28;107644;-71
2022/01/25 12:42:52;;;;;;;95.18;31.70;;;;;;;;;;4987643;28;106267;-72
2022/01/25 12:45:19;;;;;;;92.50;30.27;;;;;;;;;;4993960;28;106981;-72
2022/01/25 12:47:51;;;;;;;93.28;31.90;;;;;;;;;;4980918;28;108166;-71
2022/01/25 12:50:18;;;;;;;95.57;32.05;;;;;;;;;;4986656;28;106516;-69
2022/01/25 12:52:45;;;;;;;96.55;32.20;;;;;;;;;;4989415;28;107885;-71
2022/01/25 12:55:12;;;;;;;94.30;31.63;;;;;;;;;;4988225;28;105842;-70
2022/01/25 12:57:50;;;;;;;92.78;32.20;;;;;;;;;;4990111;28;106961;-71
2022/01/25 13:00:17;;;;;;;90.22;32.85;;;;;;;;;;4981378;28;107357;-71
2022/01/25 13:02:43;;;;;;;87.43;30.95;;;;;;;;;;4983917;28;107665;-71
2022/01/25 13:05:17;;;;;;;85.28;31.70;;;;;;;;;;4987066;28;106872;-72
2022/01/25 13:07:43;;;;;;;97.22;33.42;;;;;;;;;;4991824;28;106408;-72
2022/01/25 13:10:12;;;;;;;85.85;31.15;;;;;;;;;;4985962;28;106079;-72
2022/01/25 13:12:55;;;;;;;91.95;32.20;;;;;;;;;;4965917;28;108738;-71
2022/01/25 13:15:38;;;;;;;89.40;31.33;;;;;;;;;;4986527;28;106131;-69
2022/01/25 13:18:09;;;;;;;86.72;30.63;;;;;;;;;;4988180;28;108266;-71
2022/01/25 13:20:35;;;;;;;88.07;31.08;;;;;;;;;;4986199;28;106922;-70
2022/01/25 13:23:02;;;;;;;92.72;31.58;;;;;;;;;;4985585;28;107492;-72
2022/01/25 13:25:41;;;;;;;89.28;31.42;;;;;;;;;;4970660;28;107421;-71
2022/01/25 13:28:32;;;;;;;92.28;31.20;;;;;;;;;;4990574;28;107434;-69
2022/01/25 13:31:16;;;;;;;84.90;29.70;;;;;;;;;;4988793;28;109055;-72
2022/01/25 13:33:42;;;;;;;89.30;30.77;;;;;;;;;;4985286;28;107469;-71
2022/01/25 13:36:12;;;;;;;85.38;30.50;;;;;;;;;;4983975;28;106589;-71
2022/01/25 13:38:40;;;;;;;92.72;31.35;;;;;;;;;;4980129;28;106568;-71
2022/01/25 13:46:29;;;;;;;95.65;33.13;;;;;;;;;;4978552;28;108177;-70
2022/01/25 13:48:57;;;;;;;87.72;31.98;;;;;;;;;;4983832;28;108633;-70
2022/01/25 13:51:25;;;;;;;95.78;31.80;;;;;;;;;;4990920;28;106318;-71
2022/01/25 13:53:53;;;;;;;88.15;30.52;;;;;;;;;;4982868;28;106162;-71
2022/01/25 13:56:21;;;;;;;90.93;30.65;;;;;;;;;;4984189;28;106052;-71
2022/01/25 13:58:48;;;;;;;94.65;31.23;;;;;;;;;;4982555;28;107577;-70
2022/01/25 14:01:16;;;;;;;87.70;32.28;;;;;;;;;;4981687;28;107128;-70
2022/01/25 14:03:44;;;;;;;95.63;32.97;;;;;;;;;;4987784;28;106105;-70
2022/01/25 14:06:26;;;;;;;89.85;30.52;;;;;;;;;;4985600;28;106107;-70
2022/01/25 14:08:59;;;;;;;94.30;33.28;;;;;;;;;;4983212;28;107665;-69
2022/01/25 14:22:41;;;;;;;95.23;33.00;;;;;;;;;;4986111;28;108008;-69
2022/01/25 14:25:08;;;;;;;92.00;31.63;;;;;;;;;;4968475;28;106978;-70
2022/01/25 14:27:45;;;;;;;90.05;29.95;;;;;;;;;;4988220;28;105988;-71
2022/01/25 14:30:16;;;;;;;88.82;31.52;;;;;;;;;;4966478;28;109135;-72
2022/01/25 14:32:43;;;;;;;88.90;31.83;;;;;;;;;;4978562;28;105798;-70
2022/01/25 14:35:10;;;;;;;92.78;31.67;;;;;;;;;;4985360;28;107402;-69
2022/01/25 14:37:45;;;;;;;87.50;32.33;;;;;;;;;;4984821;28;108044;-71
2022/01/25 14:40:12;;;;;;;88.20;31.65;;;;;;;;;;4986700;28;107564;-71
2022/01/25 14:42:39;;;;;;;93.68;32.25;;;;;;;;;;4967313;28;107380;-70
2022/01/25 14:45:07;;;;;;;89.00;30.98;;;;;;;;;;4978123;28;105558;-70
2022/01/25 14:47:38;;;;;;;83.90;30.67;;;;;;;;;;4968794;28;107681;-69
2022/01/25 14:50:07;;;;;;;89.60;31.02;;;;;;;;;;4975247;28;113471;-69
2022/01/25 14:52:34;;;;;;;90.67;32.33;;;;;;;;;;4983020;28;108476;-69
2022/01/25 14:55:01;;;;;;;85.53;30.35;;;;;;;;;;4983468;28;108020;-70
2022/01/25 14:57:38;;;;;;;93.63;32.42;;;;;;;;;;4967246;28;106323;-69
2022/01/25 15:00:06;;;;;;;92.95;31.92;;;;;;;;;;4969106;28;106156;-69
2022/01/25 15:02:32;;;;;;;91.85;31.35;;;;;;;;;;4973007;28;107629;-69
2022/01/25 15:05:01;;;;;;;87.25;30.15;;;;;;;;;;4972144;28;105581;-69
2022/01/25 15:07:30;;;;;;;92.45;32.65;;;;;;;;;;4991492;28;107184;-70
2022/01/25 15:10:01;;;;;;;91.60;32.53;;;;;;;;;;4989423;28;106823;-69
2022/01/25 15:12:34;;;;;;;94.20;31.43;;;;;;;;;;4972716;28;106146;-69
2022/01/25 15:15:08;;;;;;;95.47;32.58;;;;;;;;;;4970583;28;107772;-71
2022/01/25 15:17:35;;;;;;;88.25;31.05;;;;;;;;;;4987640;28;107128;-68
2022/01/25 15:20:03;;;;;;;89.57;30.15;;;;;;;;;;4982459;28;107426;-70
2022/01/25 15:22:30;;;;;;;90.15;30.55;;;;;;;;;;4992703;28;106610;-69
2022/01/25 15:24:58;;;;;;;88.00;30.38;;;;;;;;;;4982471;28;107056;-69
2022/01/25 15:27:28;;;;;;;91.03;32.03;;;;;;;;;;4971082;28;106689;-68
2022/01/25 15:29:58;;;;;;;102.93;33.10;;;;;;;;;;4986009;28;107692;-69
2022/01/25 15:32:25;;;;;;;89.35;30.77;;;;;;;;;;4979272;28;107226;-69
2022/01/25 15:34:52;;;;;;;95.75;33.53;;;;;;;;;;4980042;28;106429;-69
2022/01/25 15:37:18;;;;;;;89.45;31.38;;;;;;;;;;4984546;28;107844;-68
2022/01/25 15:39:45;;;;;;;89.53;32.45;;;;;;;;;;4986658;28;106246;-69
2022/01/25 15:42:13;;;;;;;96.05;32.40;;;;;;;;;;4986099;28;106912;-70
2022/01/25 15:44:44;;;;;;;91.15;31.73;;;;;;;;;;4987186;28;106926;-70
2022/01/25 15:47:11;;;;;;;92.05;32.15;;;;;;;;;;4986211;28;107273;-70
2022/01/25 15:49:38;;;;;;;89.00;30.55;;;;;;;;;;4988296;28;107366;-70
2022/01/25 15:52:05;;;;;;;90.05;30.98;;;;;;;;;;4986302;28;106024;-69
2022/01/25 15:54:32;;;;;;;91.88;30.05;;;;;;;;;;4988922;28;106021;-70
2022/01/25 15:56:59;;;;;;;88.68;30.45;;;;;;;;;;4964111;28;109151;-69
2022/01/25 15:59:26;;;;;;;83.35;28.63;;;;;;;;;;4986689;28;106424;-70
2022/01/25 16:01:54;;;;;;;89.72;30.33;;;;;;;;;;4982408;28;106236;-69
2022/01/25 16:04:21;;;;;;;88.78;30.73;;;;;;;;;;4988247;28;106379;-69
2022/01/25 16:06:48;;;;;;;93.00;30.58;;;;;;;;;;4987342;28;106890;-69
2022/01/25 16:09:15;;;;;;;95.70;32.00;;;;;;;;;;4985747;28;106324;-69
2022/01/25 16:11:43;;;;;;;93.95;32.50;;;;;;;;;;4985852;28;107328;-69
2022/01/25 16:14:10;;;;;;;85.88;30.95;;;;;;;;;;4985966;28;107056;-71
2022/01/25 16:16:37;;;;;;;85.57;29.95;;;;;;;;;;4988235;28;108723;-70